ISR172 LEBL-LLBG
Flight info
| Callsign | ISR172 |
|---|---|
| Flight time | N/A |
| Altitude | 35000 |
| Route | DIPES N725 OSPOK DCT NOLVI DCT ORKUM/N0431F340 DCT ELSAG DCT ALG/N0434F350 DCT DIRED DCT LODPA DCT CRN DCT ADREN DCT TOMGI DCT RUTOM UM601 TRL DCT VANZA DCT PIKOG L609 ZUKKO |
| Aircraft | A320/M-SDE2FGHIJ1LORVWY/SB1 |
Departure
| Time | 2026-05-04 15:03 |
|---|---|
| Airport | Josep Tarradellas Barcelona-El Prat Airport (LEBL) |
Arrival
| Time | N/A |
|---|---|
| Airport | Ben Gurion International Airport (LLBG) |
| Time | Latitude | Longitude | Altitude | Speed | Heading |
|---|---|---|---|---|---|
| 2026-05-04 14:41 | 41.29105 | 2.07241 | 46 ft | 0 kts | 156° |
| 2026-05-04 14:44 | 41.29106 | 2.07241 | 46 ft | 0 kts | 156° |
| 2026-05-04 14:50 | 41.29109 | 2.07239 | 46 ft | 3 kts | 156° |
| 2026-05-04 14:50 | 41.29133 | 2.07225 | 19 ft | 4 kts | 149° |
| 2026-05-04 14:51 | 41.29152 | 2.07203 | 22 ft | 4 kts | 116° |
| 2026-05-04 14:51 | 41.29156 | 2.07173 | 20 ft | 3 kts | 66° |
| 2026-05-04 14:51 | 41.29153 | 2.07164 | 20 ft | 0 kts | 65° |
| 2026-05-04 14:55 | 41.29155 | 2.07171 | 19 ft | 4 kts | 65° |
| 2026-05-04 14:56 | 41.29183 | 2.07252 | 20 ft | 14 kts | 65° |
| 2026-05-04 14:56 | 41.29229 | 2.07371 | 19 ft | 14 kts | 44° |
| 2026-05-04 14:56 | 41.29305 | 2.07427 | 16 ft | 14 kts | 60° |
| 2026-05-04 14:56 | 41.29349 | 2.07571 | 18 ft | 18 kts | 70° |
| 2026-05-04 14:57 | 41.29397 | 2.07716 | 16 ft | 17 kts | 64° |
| 2026-05-04 14:57 | 41.29443 | 2.07855 | 16 ft | 16 kts | 66° |
| 2026-05-04 14:57 | 41.29488 | 2.07988 | 15 ft | 15 kts | 66° |
| 2026-05-04 14:57 | 41.29534 | 2.08120 | 15 ft | 17 kts | 65° |
| 2026-05-04 14:58 | 41.29569 | 2.08256 | 15 ft | 15 kts | 85° |
| 2026-05-04 14:58 | 41.29595 | 2.08377 | 17 ft | 13 kts | 65° |
| 2026-05-04 14:58 | 41.29625 | 2.08480 | 17 ft | 12 kts | 89° |
| 2026-05-04 14:58 | 41.29547 | 2.08564 | 16 ft | 17 kts | 155° |
| 2026-05-04 14:59 | 41.29435 | 2.08632 | 15 ft | 17 kts | 156° |
| 2026-05-04 14:59 | 41.29325 | 2.08697 | 17 ft | 18 kts | 155° |
| 2026-05-04 14:59 | 41.29081 | 2.08846 | 16 ft | 21 kts | 155° |
| 2026-05-04 15:00 | 41.28966 | 2.08916 | 17 ft | 13 kts | 150° |
| 2026-05-04 15:00 | 41.28962 | 2.09021 | 18 ft | 15 kts | 65° |
| 2026-05-04 15:00 | 41.29008 | 2.09153 | 17 ft | 16 kts | 65° |
| 2026-05-04 15:01 | 41.29116 | 2.09461 | 17 ft | 23 kts | 65° |
| 2026-05-04 15:01 | 41.29181 | 2.09660 | 18 ft | 23 kts | 66° |
| 2026-05-04 15:01 | 41.29242 | 2.09840 | 17 ft | 20 kts | 65° |
| 2026-05-04 15:01 | 41.29277 | 2.10005 | 16 ft | 19 kts | 97° |
| 2026-05-04 15:02 | 41.29243 | 2.10193 | 16 ft | 19 kts | 80° |
| 2026-05-04 15:02 | 41.29228 | 2.10297 | 16 ft | 8 kts | 167° |
| 2026-05-04 15:02 | 41.29200 | 2.10268 | 18 ft | 4 kts | 247° |
| 2026-05-04 15:02 | 41.29141 | 2.10090 | 18 ft | 52 kts | 245° |
| 2026-05-04 15:03 | 41.28903 | 2.09404 | 18 ft | 110 kts | 245° |
| 2026-05-04 15:03 | 41.28512 | 2.08277 | 29 ft | 154 kts | 243° |
| 2026-05-04 15:03 | 41.28033 | 2.06954 | 536 ft | 157 kts | 236° |
| 2026-05-04 15:03 | 41.27187 | 2.06084 | 1226 ft | 156 kts | 192° |
| 2026-05-04 15:04 | 41.26100 | 2.06014 | 1878 ft | 158 kts | 179° |
| 2026-05-04 15:04 | 41.25005 | 2.06012 | 2591 ft | 157 kts | 183° |
| 2026-05-04 15:04 | 41.23912 | 2.05975 | 3171 ft | 159 kts | 183° |
| 2026-05-04 15:04 | 41.22733 | 2.05915 | 3420 ft | 181 kts | 184° |
| 2026-05-04 15:05 | 41.21399 | 2.05844 | 3699 ft | 202 kts | 183° |
| 2026-05-04 15:05 | 41.19945 | 2.05772 | 4072 ft | 215 kts | 183° |
| 2026-05-04 15:05 | 41.18396 | 2.05704 | 4511 ft | 229 kts | 183° |
| 2026-05-04 15:05 | 41.16784 | 2.05635 | 5158 ft | 234 kts | 183° |
| 2026-05-04 15:06 | 41.15149 | 2.05561 | 5915 ft | 235 kts | 184° |
| 2026-05-04 15:06 | 41.13511 | 2.05483 | 6630 ft | 236 kts | 184° |
| 2026-05-04 15:06 | 41.11863 | 2.05404 | 7324 ft | 238 kts | 184° |
| 2026-05-04 15:07 | 41.08537 | 2.05246 | 8759 ft | 241 kts | 185° |
| 2026-05-04 15:07 | 41.06854 | 2.05166 | 9461 ft | 242 kts | 185° |
| 2026-05-04 15:07 | 41.05168 | 2.05084 | 10129 ft | 244 kts | 185° |
| 2026-05-04 15:07 | 41.03460 | 2.05002 | 10750 ft | 246 kts | 186° |
| 2026-05-04 15:08 | 41.01740 | 2.04944 | 11397 ft | 249 kts | 180° |
| 2026-05-04 15:08 | 41.00023 | 2.05461 | 11990 ft | 260 kts | 160° |
| 2026-05-04 15:08 | 40.98454 | 2.06869 | 12300 ft | 286 kts | 138° |
| 2026-05-04 15:08 | 40.97203 | 2.09065 | 12437 ft | 311 kts | 130° |
| 2026-05-04 15:09 | 40.95922 | 2.11489 | 12566 ft | 331 kts | 130° |
| 2026-05-04 15:09 | 40.94561 | 2.14057 | 12699 ft | 349 kts | 129° |
| 2026-05-04 15:09 | 40.93146 | 2.16728 | 13080 ft | 358 kts | 129° |
| 2026-05-04 15:10 | 40.90242 | 2.22184 | 14103 ft | 366 kts | 130° |
| 2026-05-04 15:10 | 40.88820 | 2.24997 | 14579 ft | 373 kts | 122° |
| 2026-05-04 15:10 | 40.87601 | 2.31606 | 15456 ft | 392 kts | 90° |
| 2026-05-04 15:11 | 40.88039 | 2.35181 | 15923 ft | 399 kts | 73° |
| 2026-05-04 15:11 | 40.89127 | 2.38573 | 16412 ft | 403 kts | 65° |
| 2026-05-04 15:11 | 40.90330 | 2.41944 | 17155 ft | 408 kts | 66° |
| 2026-05-04 15:11 | 40.91547 | 2.45354 | 17753 ft | 413 kts | 65° |
| 2026-05-04 15:12 | 40.92774 | 2.48805 | 18228 ft | 416 kts | 65° |
| 2026-05-04 15:12 | 40.94008 | 2.52295 | 18639 ft | 420 kts | 66° |
| 2026-05-04 15:12 | 40.95247 | 2.55811 | 19050 ft | 423 kts | 66° |
| 2026-05-04 15:12 | 40.96508 | 2.59398 | 19470 ft | 427 kts | 66° |
| 2026-05-04 15:13 | 40.97762 | 2.62970 | 19892 ft | 430 kts | 66° |
| 2026-05-04 15:13 | 40.99024 | 2.66572 | 20286 ft | 433 kts | 66° |
| 2026-05-04 15:13 | 41.00295 | 2.70203 | 20669 ft | 436 kts | 66° |
| 2026-05-04 15:13 | 41.01573 | 2.73855 | 21053 ft | 439 kts | 66° |
| 2026-05-04 15:14 | 41.02861 | 2.77540 | 21436 ft | 442 kts | 66° |
| 2026-05-04 15:14 | 41.04155 | 2.81243 | 21803 ft | 446 kts | 66° |
| 2026-05-04 15:14 | 41.05462 | 2.84985 | 22165 ft | 449 kts | 66° |
| 2026-05-04 15:14 | 41.06773 | 2.88755 | 22523 ft | 452 kts | 66° |
| 2026-05-04 15:15 | 41.08091 | 2.92545 | 22874 ft | 455 kts | 66° |
| 2026-05-04 15:15 | 41.09332 | 2.96418 | 23221 ft | 457 kts | 73° |
| 2026-05-04 15:15 | 41.10131 | 3.00491 | 23582 ft | 457 kts | 83° |
| 2026-05-04 15:16 | 41.10264 | 3.08847 | 24178 ft | 453 kts | 101° |
| 2026-05-04 15:16 | 41.09902 | 3.13000 | 24492 ft | 455 kts | 101° |
| 2026-05-04 15:16 | 41.09182 | 3.21368 | 25122 ft | 459 kts | 101° |
| 2026-05-04 15:17 | 41.08823 | 3.25581 | 25432 ft | 461 kts | 101° |
| 2026-05-04 15:17 | 41.08084 | 3.34057 | 25969 ft | 466 kts | 101° |
| 2026-05-04 15:17 | 41.07703 | 3.38330 | 26242 ft | 468 kts | 102° |
| 2026-05-04 15:18 | 41.07318 | 3.42632 | 26523 ft | 471 kts | 102° |
| 2026-05-04 15:18 | 41.06932 | 3.46939 | 26831 ft | 472 kts | 102° |
| 2026-05-04 15:18 | 41.06541 | 3.51275 | 27124 ft | 474 kts | 102° |
| 2026-05-04 15:19 | 41.05274 | 3.59814 | 27710 ft | 473 kts | 109° |
| 2026-05-04 15:19 | 41.04517 | 3.64058 | 28013 ft | 475 kts | 109° |
| 2026-05-04 15:19 | 41.02983 | 3.72600 | 28719 ft | 476 kts | 109° |
| 2026-05-04 15:20 | 41.02220 | 3.76851 | 29156 ft | 475 kts | 109° |
| 2026-05-04 15:20 | 41.01704 | 3.79729 | 29445 ft | 474 kts | 109° |
| 2026-05-04 15:20 | 41.00945 | 3.83967 | 29793 ft | 475 kts | 110° |
| 2026-05-04 15:20 | 41.00181 | 3.88220 | 30132 ft | 475 kts | 111° |
| 2026-05-04 15:21 | 40.99413 | 3.92475 | 30473 ft | 474 kts | 111° |
| 2026-05-04 15:21 | 40.98644 | 3.96715 | 30822 ft | 474 kts | 111° |
| 2026-05-04 15:21 | 40.97102 | 4.05184 | 31521 ft | 472 kts | 111° |
| 2026-05-04 15:22 | 40.96331 | 4.09397 | 31881 ft | 472 kts | 111° |
| 2026-05-04 15:22 | 40.95556 | 4.13616 | 32246 ft | 471 kts | 111° |
| 2026-05-04 15:22 | 40.94010 | 4.22018 | 32900 ft | 470 kts | 111° |
| 2026-05-04 15:23 | 40.93237 | 4.26209 | 33235 ft | 470 kts | 111° |
| 2026-05-04 15:23 | 40.92460 | 4.30411 | 33566 ft | 469 kts | 111° |
| 2026-05-04 15:23 | 40.91683 | 4.34600 | 33895 ft | 469 kts | 112° |
| 2026-05-04 15:23 | 40.90906 | 4.38782 | 34169 ft | 468 kts | 111° |
| 2026-05-04 15:24 | 40.89357 | 4.47128 | 34685 ft | 468 kts | 111° |
| 2026-05-04 15:24 | 40.87796 | 4.55497 | 34943 ft | 472 kts | 111° |